Time;durP1;ratioP1;P1;durP2;ratioP2;P2;SDS_P1;SDS_P2;PMS_P1;PMS_P2;Temp;Humidity;BMP_temperature;BMP_pressure;BME280_temperature;BME280_humidity;BME280_pressure;Samples;Min_cycle;Max_cycle;Signal;HPM_P1;HPM_P2
2021/11/10 00:06:52;;;;;;;11.27;4.43;;;10.40;99.90;;;;;;20718255;28;20082;-43
2021/11/10 00:16:55;;;;;;;10.10;3.25;;;10.30;99.90;;;;;;20727109;28;20065;-43
2021/11/10 00:26:56;;;;;;;11.10;3.22;;;10.40;99.90;;;;;;20723564;28;20048;-43
2021/11/10 00:36:57;;;;;;;14.40;4.20;;;10.40;99.90;;;;;;20743128;28;20046;-43
2021/11/10 00:46:58;;;;;;;9.82;3.50;;;10.40;99.90;;;;;;20731641;28;20053;-43
2021/11/10 00:56:59;;;;;;;5.63;2.45;;;10.30;99.90;;;;;;20727269;28;20050;-43
2021/11/10 01:07:03;;;;;;;9.50;3.45;;;10.20;99.90;;;;;;20712507;28;20060;-44
2021/11/10 01:17:05;;;;;;;8.07;3.50;;;10.20;99.90;;;;;;20727734;28;20065;-44
2021/11/10 01:27:07;;;;;;;9.80;3.30;;;10.20;99.90;;;;;;20721620;28;20057;-46
2021/11/10 01:37:08;;;;;;;6.40;3.72;;;10.10;99.90;;;;;;20730283;28;20357;-43
2021/11/10 01:47:12;;;;;;;9.40;3.75;;;10.20;99.90;;;;;;20729937;28;20041;-44
2021/11/10 01:57:13;;;;;;;11.63;3.08;;;10.20;99.90;;;;;;20725980;28;20056;-44
2021/11/10 02:07:16;;;;;;;7.97;3.70;;;10.10;99.90;;;;;;20732122;28;20053;-43
2021/11/10 02:17:20;;;;;;;10.50;3.58;;;10.00;99.90;;;;;;20738643;28;20056;-43
2021/11/10 02:27:22;;;;;;;7.10;3.05;;;9.90;99.90;;;;;;20734976;28;21054;-43
2021/11/10 02:37:24;;;;;;;8.98;3.40;;;9.90;99.90;;;;;;20730668;28;20048;-43
2021/11/10 02:47:25;;;;;;;13.05;3.53;;;9.80;99.90;;;;;;20727178;28;20020;-43
2021/11/10 02:57:27;;;;;;;11.35;3.97;;;9.80;99.90;;;;;;20719000;28;20045;-43
2021/11/10 03:07:28;;;;;;;13.77;5.25;;;9.80;99.90;;;;;;20731246;28;20044;-43
2021/11/10 03:17:29;;;;;;;12.00;4.20;;;9.80;99.90;;;;;;20723585;28;20040;-44
2021/11/10 03:27:30;;;;;;;15.43;4.72;;;9.70;99.90;;;;;;20720850;28;20038;-43
2021/11/10 03:37:31;;;;;;;17.75;3.92;;;9.70;99.90;;;;;;20704101;28;20080;-43
2021/11/10 03:47:33;;;;;;;10.52;3.75;;;9.80;99.90;;;;;;20726634;28;20058;-43
2021/11/10 03:57:34;;;;;;;11.05;4.38;;;9.80;99.90;;;;;;20725340;28;20061;-44
2021/11/10 04:07:35;;;;;;;15.23;4.15;;;9.60;99.90;;;;;;20728946;28;20037;-43
2021/11/10 04:17:36;;;;;;;13.13;4.45;;;9.50;99.90;;;;;;20732796;28;20045;-43
2021/11/10 04:27:37;;;;;;;9.38;4.22;;;9.40;99.90;;;;;;20739287;28;20048;-43
2021/11/10 04:37:39;;;;;;;9.55;4.40;;;9.40;99.90;;;;;;20738257;28;20050;-43
2021/11/10 04:47:40;;;;;;;9.40;3.55;;;9.30;99.90;;;;;;20732549;28;20050;-43
2021/11/10 04:57:41;;;;;;;13.90;3.80;;;9.30;99.90;;;;;;20745109;28;20050;-43
2021/11/10 05:07:43;;;;;;;9.95;3.63;;;9.40;99.90;;;;;;20738891;28;20061;-43
2021/11/10 05:17:44;;;;;;;11.52;3.92;;;9.30;99.90;;;;;;20729840;28;20049;-43
2021/11/10 05:27:45;;;;;;;8.23;3.95;;;9.30;99.90;;;;;;20732612;28;20046;-44
2021/11/10 05:37:46;;;;;;;10.45;4.90;;;9.20;99.90;;;;;;20724480;28;20045;-43
2021/11/10 05:47:48;;;;;;;9.63;4.45;;;9.30;99.90;;;;;;20739989;28;20479;-44
2021/11/10 05:57:50;;;;;;;9.65;3.83;;;9.30;99.90;;;;;;20738771;28;20050;-43
2021/11/10 06:07:51;;;;;;;9.15;4.07;;;9.00;99.90;;;;;;20737406;28;20814;-43
2021/11/10 06:17:52;;;;;;;9.85;4.18;;;9.00;99.90;;;;;;20752928;28;20046;-44
2021/11/10 06:27:54;;;;;;;11.75;4.40;;;9.10;99.90;;;;;;20751404;28;20046;-43
2021/11/10 06:37:55;;;;;;;9.05;3.72;;;8.90;99.90;;;;;;20736817;28;20092;-44
2021/11/10 06:47:56;;;;;;;13.38;4.45;;;8.90;99.90;;;;;;20736980;28;20038;-44
2021/11/10 06:57:57;;;;;;;11.50;4.07;;;8.80;99.90;;;;;;20746015;28;20062;-44
2021/11/10 07:07:58;;;;;;;15.23;3.90;;;8.80;99.90;;;;;;20711023;28;21096;-43
2021/11/10 07:18:00;;;;;;;11.15;4.53;;;8.70;99.90;;;;;;20724838;28;20905;-43
2021/11/10 07:28:01;;;;;;;11.65;5.05;;;8.70;99.90;;;;;;20702319;28;20484;-43
2021/11/10 07:38:03;;;;;;;12.23;4.80;;;8.70;99.90;;;;;;20758262;28;20054;-43
2021/11/10 07:48:09;;;;;;;9.05;3.33;;;8.70;99.90;;;;;;20762008;28;20128;-43
2021/11/10 07:58:10;;;;;;;11.43;4.20;;;8.60;99.90;;;;;;20772255;28;20049;-43
2021/11/10 08:08:11;;;;;;;22.08;5.07;;;8.70;99.90;;;;;;20772979;28;20040;-43
2021/11/10 08:18:13;;;;;;;15.40;5.45;;;8.70;99.90;;;;;;20770420;28;20541;-43
2021/11/10 08:28:15;;;;;;;20.33;5.22;;;8.70;99.90;;;;;;20775624;28;20625;-43
2021/11/10 08:38:18;;;;;;;20.23;5.15;;;8.70;99.90;;;;;;20795809;28;20509;-43
2021/11/10 08:48:19;;;;;;;19.05;4.25;;;8.60;99.90;;;;;;20807844;28;20041;-43
2021/11/10 08:58:21;;;;;;;11.30;4.82;;;8.60;99.90;;;;;;20788777;28;20064;-43
2021/11/10 09:08:27;;;;;;;16.70;5.40;;;8.70;99.90;;;;;;20794121;28;20033;-43
2021/11/10 09:18:29;;;;;;;25.35;6.00;;;8.70;99.90;;;;;;20785002;28;19939;-43
2021/11/10 09:28:31;;;;;;;15.20;5.57;;;8.80;99.90;;;;;;20800982;28;20036;-45
2021/11/10 09:38:33;;;;;;;18.80;5.55;;;8.90;99.90;;;;;;20789053;28;20080;-43
2021/11/10 09:48:34;;;;;;;19.70;5.57;;;9.10;99.90;;;;;;20780809;28;20225;-43
2021/11/10 09:58:37;;;;;;;13.75;5.85;;;9.20;99.90;;;;;;20780164;28;20065;-43
2021/11/10 10:08:39;;;;;;;16.33;6.53;;;9.40;99.90;;;;;;20795538;28;20029;-44
2021/11/10 10:18:41;;;;;;;25.83;6.22;;;9.40;99.90;;;;;;20774234;28;20052;-44
2021/11/10 10:28:46;;;;;;;18.23;7.22;;;9.70;99.90;;;;;;20786704;28;20081;-44
2021/11/10 10:38:51;;;;;;;14.57;4.50;;;9.90;99.90;;;;;;20780350;28;20041;-44
2021/11/10 10:49:32;;;;;;;11.18;4.32;;;10.10;99.90;;;;;;20766088;28;20050;-44
2021/11/10 10:59:35;;;;;;;14.13;5.13;;;10.10;99.90;;;;;;20779410;28;20310;-44
2021/11/10 11:09:49;;;;;;;16.15;4.60;;;10.20;99.90;;;;;;20766628;28;20068;-44
2021/11/10 11:20:00;;;;;;;11.55;3.65;;;10.30;99.90;;;;;;20773969;28;20426;-44
2021/11/10 11:30:11;;;;;;;12.88;3.80;;;10.40;99.90;;;;;;20788795;28;20038;-44
2021/11/10 11:40:19;;;;;;;13.68;4.22;;;10.50;99.90;;;;;;20762025;28;20482;-44
2021/11/10 11:50:21;;;;;;;15.98;4.15;;;10.50;99.90;;;;;;20774276;28;20048;-44
2021/11/10 12:00:24;;;;;;;13.48;4.53;;;10.60;99.90;;;;;;20787619;28;20094;-44
2021/11/10 12:10:33;;;;;;;13.93;4.05;;;10.50;99.90;;;;;;20771830;28;20065;-44
2021/11/10 12:20:38;;;;;;;8.90;3.28;;;10.50;99.90;;;;;;20792563;28;20049;-44
2021/11/10 12:30:44;;;;;;;16.45;3.80;;;10.60;99.90;;;;;;20790676;28;20048;-44
2021/11/10 12:40:51;;;;;;;8.23;3.70;;;10.60;99.90;;;;;;20786672;28;20042;-44
2021/11/10 12:50:53;;;;;;;12.95;3.25;;;10.60;99.90;;;;;;20773907;28;20054;-44
2021/11/10 13:00:57;;;;;;;10.10;3.33;;;10.60;99.90;;;;;;20773897;28;20432;-44
2021/11/10 13:10:58;;;;;;;12.90;3.65;;;10.60;99.90;;;;;;20773747;28;20061;-44
2021/11/10 13:21:02;;;;;;;11.85;4.45;;;10.60;99.90;;;;;;20792212;28;20049;-44
2021/11/10 13:31:04;;;;;;;9.30;2.85;;;10.60;99.90;;;;;;20774437;28;20498;-44
2021/11/10 13:41:25;;;;;;;13.55;4.05;;;10.60;99.90;;;;;;20780670;28;20041;-44
2021/11/10 13:51:26;;;;;;;12.80;5.18;;;10.50;99.90;;;;;;20762957;28;20846;-44
2021/11/10 14:01:27;;;;;;;14.98;5.47;;;10.60;99.90;;;;;;20788160;28;20753;-44
2021/11/10 14:11:28;;;;;;;8.07;2.78;;;10.60;99.90;;;;;;20781258;28;20319;-44
2021/11/10 14:21:29;;;;;;;11.48;3.67;;;10.50;99.90;;;;;;20779816;28;20033;-44
2021/11/10 14:31:30;;;;;;;9.35;3.33;;;10.50;99.90;;;;;;20765895;28;20060;-44
2021/11/10 14:52:09;;;;;;;12.27;3.65;;;10.40;99.90;;;;;;20760104;28;20054;-44
2021/11/10 15:02:24;;;;;;;14.27;5.05;;;10.40;99.90;;;;;;20756761;28;20392;-44
2021/11/10 15:12:26;;;;;;;12.25;4.35;;;10.40;99.90;;;;;;20737014;28;20037;-44
2021/11/10 15:22:43;;;;;;;14.30;4.13;;;10.50;99.90;;;;;;20712226;28;20041;-44
2021/11/10 15:32:56;;;;;;;11.48;3.92;;;10.60;99.90;;;;;;20703072;28;20578;-44
2021/11/10 15:42:58;;;;;;;9.70;3.20;;;10.50;99.90;;;;;;20687293;28;20045;-44
2021/11/10 15:52:59;;;;;;;11.55;4.28;;;10.50;99.90;;;;;;20697216;28;20058;-44
2021/11/10 16:03:00;;;;;;;11.20;3.83;;;10.40;99.90;;;;;;20698499;28;20542;-44
2021/11/10 16:13:03;;;;;;;9.68;3.50;;;10.50;99.90;;;;;;20667140;28;20114;-44
2021/11/10 16:23:06;;;;;;;13.48;4.05;;;10.50;99.90;;;;;;20709643;28;20057;-44
2021/11/10 16:33:08;;;;;;;10.82;4.25;;;10.60;99.90;;;;;;20702245;28;20407;-44
2021/11/10 16:43:12;;;;;;;9.30;2.92;;;10.70;99.90;;;;;;20678276;28;20050;-44
2021/11/10 16:53:13;;;;;;;9.82;3.22;;;10.60;99.90;;;;;;20700121;28;20090;-44
2021/11/10 17:03:15;;;;;;;7.25;3.40;;;10.60;99.90;;;;;;20714523;28;20044;-44
2021/11/10 17:13:17;;;;;;;8.85;3.75;;;10.60;99.90;;;;;;20702849;28;20052;-44
2021/11/10 17:23:20;;;;;;;8.10;3.70;;;10.60;99.90;;;;;;20710364;28;20037;-44
2021/11/10 17:33:21;;;;;;;8.27;2.88;;;10.60;99.90;;;;;;20714130;28;20430;-44
2021/11/10 17:43:23;;;;;;;7.43;2.67;;;10.60;99.90;;;;;;20678206;28;20045;-44
2021/11/10 17:53:25;;;;;;;11.75;4.30;;;10.50;99.90;;;;;;20697448;28;20046;-43
2021/11/10 18:03:26;;;;;;;15.88;4.35;;;10.60;99.90;;;;;;20695855;28;20667;-44
2021/11/10 18:13:27;;;;;;;11.77;4.10;;;10.60;99.90;;;;;;20698323;28;20681;-44
2021/11/10 18:23:28;;;;;;;13.30;5.45;;;10.60;99.90;;;;;;20701433;28;20045;-44
2021/11/10 18:33:29;;;;;;;13.02;6.13;;;10.60;99.90;;;;;;20714256;28;20084;-44
2021/11/10 18:43:31;;;;;;;9.90;4.45;;;10.60;99.90;;;;;;20698548;28;20038;-44
2021/11/10 18:53:32;;;;;;;7.95;3.80;;;10.60;99.90;;;;;;20701482;28;20067;-44
2021/11/10 19:03:33;;;;;;;14.50;5.13;;;10.60;99.90;;;;;;20694002;28;20041;-44
2021/11/10 19:23:51;;;;;;;15.00;5.63;;;10.50;99.90;;;;;;20699873;28;20038;-44
2021/11/10 19:33:52;;;;;;;16.05;5.80;;;10.50;99.90;;;;;;20697739;28;20076;-44
2021/11/10 19:43:54;;;;;;;14.32;5.63;;;10.50;99.90;;;;;;20693724;28;20170;-44
2021/11/10 19:53:56;;;;;;;14.73;5.53;;;10.60;99.90;;;;;;20691743;28;20510;-44
2021/11/10 20:03:59;;;;;;;16.80;5.78;;;10.50;99.90;;;;;;20686146;28;20030;-44
2021/11/10 20:14:05;;;;;;;14.68;5.95;;;10.50;99.90;;;;;;20683638;28;20706;-44
2021/11/10 20:24:07;;;;;;;15.48;5.32;;;10.40;99.90;;;;;;20684741;28;20053;-44
2021/11/10 20:34:08;;;;;;;8.93;5.03;;;10.40;99.90;;;;;;20695192;28;20058;-44
2021/11/10 20:44:09;;;;;;;14.30;3.92;;;10.40;99.90;;;;;;20701430;28;21213;-44
2021/11/10 20:54:11;;;;;;;9.95;4.30;;;10.30;99.90;;;;;;20711563;28;20056;-44
2021/11/10 21:04:13;;;;;;;11.30;4.60;;;10.30;99.90;;;;;;20743589;28;20052;-44
2021/11/10 21:14:14;;;;;;;9.20;4.35;;;10.40;99.90;;;;;;20750654;28;20060;-44
2021/11/10 21:24:15;;;;;;;16.85;5.68;;;10.30;99.90;;;;;;20732254;28;20139;-44
2021/11/10 21:34:16;;;;;;;13.18;5.10;;;10.30;99.90;;;;;;20737495;28;20950;-44
2021/11/10 21:44:18;;;;;;;10.85;4.72;;;10.30;99.90;;;;;;20738072;28;20068;-44
2021/11/10 21:54:21;;;;;;;10.90;4.88;;;10.20;99.90;;;;;;20736288;28;21951;-44
2021/11/10 22:04:23;;;;;;;14.73;4.50;;;10.20;99.90;;;;;;20739890;28;20046;-44
2021/11/10 22:14:24;;;;;;;11.55;4.47;;;10.20;99.90;;;;;;20746183;28;20053;-44
2021/11/10 22:24:26;;;;;;;12.18;5.53;;;10.20;99.90;;;;;;20735856;28;20034;-44
2021/11/10 22:34:27;;;;;;;11.57;5.35;;;10.20;99.90;;;;;;20744143;28;20056;-44
2021/11/10 22:44:29;;;;;;;11.52;5.72;;;10.20;99.90;;;;;;20738866;28;20114;-44
2021/11/10 22:54:31;;;;;;;13.30;4.93;;;10.10;99.90;;;;;;20739054;28;20553;-44
2021/11/10 23:04:32;;;;;;;12.82;4.72;;;10.10;99.90;;;;;;20736345;28;20394;-44
2021/11/10 23:14:33;;;;;;;13.32;4.30;;;10.10;99.90;;;;;;20724531;28;20056;-44
2021/11/10 23:24:34;;;;;;;13.98;5.45;;;10.20;99.90;;;;;;20729996;28;20041;-44
2021/11/10 23:34:37;;;;;;;13.25;5.20;;;10.10;99.90;;;;;;20707202;28;20058;-44
2021/11/10 23:44:39;;;;;;;14.50;4.68;;;10.10;99.90;;;;;;20733065;28;20036;-44
2021/11/10 23:54:40;;;;;;;11.85;4.97;;;10.10;99.90;;;;;;20742830;28;20064;-44
